RJOY(METAR)
09/15 19:00
METAR RJOY 151000Z 02009KT 350V050 9999 FEW035 29/19 Q1005 RMK
1CU035 A2970=
戻る
トップページへ戻る
IMOC Co,.Ltd.